Aviation Digital Data Service (ADDS)

Output produced by METARs form (0148 UTC 27 June 2017)
found at http://www.aviationweather.gov/adds/metars/
 
KILG 270051Z 21003KT 10SM CLR 24/09 A3000 RMK AO2 SLP157 T02390089
KILG 262340Z 2700/2718 24009KT P6SM SCT080 
     FM270200 VRB04KT P6SM SCT070 
     FM271400 28006KT P6SM BKN100 
     FM271700 27012G20KT P6SM BKN100